< < Back
Terminal Aerodrome Forecast


Current Version              Previous Versions:   1  2  3  4  5  6  7  8  9  

Terminal Aerodrome Forecast

336
FTUS42 KILM 251700
TAFFLO
TAF
KFLO 251721Z 2518/2618 18009KT P6SM SKC
     FM252200 18006KT P6SM FEW120 SCT250
     FM260800 21006KT 6SM BR BKN035 BKN090
     FM261400 26012G19KT P6SM SCT015 SCT050=

Latest METAR

684
SAUS70 KWBC 262000 RRE
MTRFLO
METAR KFLO 261953Z 35015G20KT 10SM BKN036 BKN048 OVC070 12/05 A2959 RMK
AO2 RAB31E44 SLP018 P0000 T01220050


USA.gov is the U.S. government's official web portal to all federal, state and local government web resources and services.